LPFL/FLW METAR and TAF weather

Enter ICAO airport designator
Station Type Date Time Source
LPFL METAR 2019/10/13 18:00 UTC NOAA

LPFL 131800Z 33014G28KT 300V360 9999 FEW035 19/11 Q1023


Station Type Date Time Source
LPFL Decoded METAR 2019/10/13 18:00 UTC NOAA

Flores Acores , Portugal (LPFL) 39-27N 031-08W 29M
Oct 13, 2019 - 02:00 PM EDT / 2019.10.13 1800 UTC
Wind: from the NNW (330 degrees) at 16 MPH (14 KT) gusting to 32 MPH (28 KT) (direction variable):0
Visibility: greater than 7 mile(s):0
Sky conditions: mostly clear
Temperature: 66 F (19 C)
Dew Point: 51 F (11 C)
Relative Humidity: 59%
Pressure (altimeter): 30.21 in. Hg (1023 hPa)
ob: LPFL 131800Z 33014G28KT 300V360 9999 FEW035 19/11 Q1023
cycle: 18

Station Type Date Time Source
LPFL TAF UTC NOAA

Error!

Example: see airport list